sensor_id;sensor_type;location;lat;lon;timestamp;P1;durP1;ratioP1;P2;durP2;ratioP2
58017;SDS011;43810;50.860;19.226;2022-11-20T00:00:00;73.10;;;29.48;;
58017;SDS011;43810;50.860;19.226;2022-11-20T00:02:26;84.65;;;32.78;;
58017;SDS011;43810;50.860;19.226;2022-11-20T00:04:52;74.65;;;32.58;;
58017;SDS011;43810;50.860;19.226;2022-11-20T00:07:17;87.40;;;32.40;;
58017;SDS011;43810;50.860;19.226;2022-11-20T00:09:43;61.95;;;28.10;;
58017;SDS011;43810;50.860;19.226;2022-11-20T00:12:08;73.75;;;32.20;;
58017;SDS011;43810;50.860;19.226;2022-11-20T00:14:34;83.97;;;35.33;;
58017;SDS011;43810;50.860;19.226;2022-11-20T00:17:00;87.32;;;34.65;;
58017;SDS011;43810;50.860;19.226;2022-11-20T00:19:26;80.28;;;32.92;;
58017;SDS011;43810;50.860;19.226;2022-11-20T00:21:51;78.88;;;33.00;;
58017;SDS011;43810;50.860;19.226;2022-11-20T00:24:19;75.63;;;32.90;;
58017;SDS011;43810;50.860;19.226;2022-11-20T00:26:44;74.68;;;30.65;;
58017;SDS011;43810;50.860;19.226;2022-11-20T00:29:10;86.28;;;31.40;;
58017;SDS011;43810;50.860;19.226;2022-11-20T00:31:36;75.18;;;28.15;;
58017;SDS011;43810;50.860;19.226;2022-11-20T00:34:02;76.68;;;29.88;;
58017;SDS011;43810;50.860;19.226;2022-11-20T00:36:28;73.05;;;30.20;;
58017;SDS011;43810;50.860;19.226;2022-11-20T00:38:57;72.35;;;27.65;;
58017;SDS011;43810;50.860;19.226;2022-11-20T00:41:24;60.28;;;24.35;;
58017;SDS011;43810;50.860;19.226;2022-11-20T00:43:51;71.13;;;26.98;;
58017;SDS011;43810;50.860;19.226;2022-11-20T00:46:20;73.20;;;27.42;;
58017;SDS011;43810;50.860;19.226;2022-11-20T00:48:51;55.85;;;25.17;;
58017;SDS011;43810;50.860;19.226;2022-11-20T00:51:17;60.40;;;26.45;;
58017;SDS011;43810;50.860;19.226;2022-11-20T00:53:45;68.32;;;26.00;;
58017;SDS011;43810;50.860;19.226;2022-11-20T00:56:12;69.65;;;26.63;;
58017;SDS011;43810;50.860;19.226;2022-11-20T00:58:40;66.00;;;25.98;;
58017;SDS011;43810;50.860;19.226;2022-11-20T01:01:11;66.85;;;27.45;;
58017;SDS011;43810;50.860;19.226;2022-11-20T01:03:42;65.10;;;24.63;;
58017;SDS011;43810;50.860;19.226;2022-11-20T01:06:14;64.78;;;24.70;;
58017;SDS011;43810;50.860;19.226;2022-11-20T01:08:51;63.05;;;22.83;;
58017;SDS011;43810;50.860;19.226;2022-11-20T01:11:20;57.90;;;24.67;;
58017;SDS011;43810;50.860;19.226;2022-11-20T01:13:48;69.85;;;25.52;;
58017;SDS011;43810;50.860;19.226;2022-11-20T01:16:16;57.20;;;24.23;;
58017;SDS011;43810;50.860;19.226;2022-11-20T01:18:45;72.75;;;28.30;;
58017;SDS011;43810;50.860;19.226;2022-11-20T01:21:16;65.25;;;27.77;;
58017;SDS011;43810;50.860;19.226;2022-11-20T01:23:47;65.05;;;26.80;;
58017;SDS011;43810;50.860;19.226;2022-11-20T01:26:20;72.85;;;26.98;;
58017;SDS011;43810;50.860;19.226;2022-11-20T01:28:48;73.00;;;25.90;;
58017;SDS011;43810;50.860;19.226;2022-11-20T01:31:15;62.33;;;24.75;;
58017;SDS011;43810;50.860;19.226;2022-11-20T01:33:43;62.88;;;27.60;;
58017;SDS011;43810;50.860;19.226;2022-11-20T01:36:10;61.53;;;25.25;;
58017;SDS011;43810;50.860;19.226;2022-11-20T01:38:37;62.88;;;27.05;;
58017;SDS011;43810;50.860;19.226;2022-11-20T01:41:03;61.85;;;25.67;;
58017;SDS011;43810;50.860;19.226;2022-11-20T01:43:29;70.28;;;28.77;;
58017;SDS011;43810;50.860;19.226;2022-11-20T01:46:00;70.50;;;26.15;;
58017;SDS011;43810;50.860;19.226;2022-11-20T01:48:28;65.55;;;25.38;;
58017;SDS011;43810;50.860;19.226;2022-11-20T01:50:58;69.57;;;29.25;;
58017;SDS011;43810;50.860;19.226;2022-11-20T01:53:28;57.50;;;25.20;;
58017;SDS011;43810;50.860;19.226;2022-11-20T01:55:58;59.83;;;24.40;;
58017;SDS011;43810;50.860;19.226;2022-11-20T01:58:30;60.35;;;24.67;;
58017;SDS011;43810;50.860;19.226;2022-11-20T02:01:00;69.63;;;26.80;;
58017;SDS011;43810;50.860;19.226;2022-11-20T02:03:26;66.00;;;25.70;;
58017;SDS011;43810;50.860;19.226;2022-11-20T02:08:44;62.88;;;22.70;;
58017;SDS011;43810;50.860;19.226;2022-11-20T02:11:10;55.00;;;24.17;;
58017;SDS011;43810;50.860;19.226;2022-11-20T02:13:36;59.63;;;23.65;;
58017;SDS011;43810;50.860;19.226;2022-11-20T02:16:15;62.90;;;25.38;;
58017;SDS011;43810;50.860;19.226;2022-11-20T02:18:42;57.55;;;26.70;;
58017;SDS011;43810;50.860;19.226;2022-11-20T02:21:21;72.88;;;27.10;;
58017;SDS011;43810;50.860;19.226;2022-11-20T02:23:57;49.25;;;20.40;;
58017;SDS011;43810;50.860;19.226;2022-11-20T02:26:23;56.05;;;25.10;;
58017;SDS011;43810;50.860;19.226;2022-11-20T02:28:51;58.72;;;24.60;;
58017;SDS011;43810;50.860;19.226;2022-11-20T02:31:17;48.72;;;23.13;;
58017;SDS011;43810;50.860;19.226;2022-11-20T02:33:43;57.95;;;24.25;;
58017;SDS011;43810;50.860;19.226;2022-11-20T02:36:09;63.85;;;24.92;;
58017;SDS011;43810;50.860;19.226;2022-11-20T02:38:39;57.63;;;24.20;;
58017;SDS011;43810;50.860;19.226;2022-11-20T02:41:05;67.20;;;27.33;;
58017;SDS011;43810;50.860;19.226;2022-11-20T02:43:31;71.00;;;26.25;;
58017;SDS011;43810;50.860;19.226;2022-11-20T02:45:56;57.28;;;26.13;;
58017;SDS011;43810;50.860;19.226;2022-11-20T02:48:22;58.60;;;24.90;;
58017;SDS011;43810;50.860;19.226;2022-11-20T02:50:47;54.63;;;25.48;;
58017;SDS011;43810;50.860;19.226;2022-11-20T02:53:13;66.47;;;26.33;;
58017;SDS011;43810;50.860;19.226;2022-11-20T02:55:39;69.75;;;25.63;;
58017;SDS011;43810;50.860;19.226;2022-11-20T02:58:05;71.57;;;26.25;;
58017;SDS011;43810;50.860;19.226;2022-11-20T03:00:30;79.43;;;31.95;;
58017;SDS011;43810;50.860;19.226;2022-11-20T03:02:57;76.22;;;29.85;;
58017;SDS011;43810;50.860;19.226;2022-11-20T03:05:22;65.60;;;28.38;;
58017;SDS011;43810;50.860;19.226;2022-11-20T03:07:48;80.53;;;30.23;;
58017;SDS011;43810;50.860;19.226;2022-11-20T03:10:14;70.05;;;31.48;;
58017;SDS011;43810;50.860;19.226;2022-11-20T03:12:40;82.88;;;29.77;;
58017;SDS011;43810;50.860;19.226;2022-11-20T03:15:05;73.85;;;29.35;;
58017;SDS011;43810;50.860;19.226;2022-11-20T03:17:31;68.93;;;31.73;;
58017;SDS011;43810;50.860;19.226;2022-11-20T03:19:57;68.97;;;29.70;;
58017;SDS011;43810;50.860;19.226;2022-11-20T03:22:23;76.80;;;29.90;;
58017;SDS011;43810;50.860;19.226;2022-11-20T03:24:48;87.65;;;35.67;;
58017;SDS011;43810;50.860;19.226;2022-11-20T03:27:14;73.10;;;28.95;;
58017;SDS011;43810;50.860;19.226;2022-11-20T03:29:39;79.72;;;32.10;;
58017;SDS011;43810;50.860;19.226;2022-11-20T03:32:05;81.70;;;31.60;;
58017;SDS011;43810;50.860;19.226;2022-11-20T03:34:31;71.35;;;30.13;;
58017;SDS011;43810;50.860;19.226;2022-11-20T03:36:57;53.42;;;28.02;;
58017;SDS011;43810;50.860;19.226;2022-11-20T03:39:22;78.45;;;28.00;;
58017;SDS011;43810;50.860;19.226;2022-11-20T03:41:48;71.40;;;28.67;;
58017;SDS011;43810;50.860;19.226;2022-11-20T03:44:14;82.97;;;29.98;;
58017;SDS011;43810;50.860;19.226;2022-11-20T03:46:39;76.97;;;27.98;;
58017;SDS011;43810;50.860;19.226;2022-11-20T03:49:05;68.90;;;27.73;;
58017;SDS011;43810;50.860;19.226;2022-11-20T03:51:32;68.45;;;28.13;;
58017;SDS011;43810;50.860;19.226;2022-11-20T03:54:01;67.35;;;28.15;;
58017;SDS011;43810;50.860;19.226;2022-11-20T03:56:32;72.57;;;30.88;;
58017;SDS011;43810;50.860;19.226;2022-11-20T03:58:59;64.78;;;25.88;;
58017;SDS011;43810;50.860;19.226;2022-11-20T04:01:26;60.47;;;28.40;;
58017;SDS011;43810;50.860;19.226;2022-11-20T04:03:56;66.15;;;28.65;;
58017;SDS011;43810;50.860;19.226;2022-11-20T04:06:24;61.28;;;27.38;;
58017;SDS011;43810;50.860;19.226;2022-11-20T04:08:51;74.78;;;27.90;;
58017;SDS011;43810;50.860;19.226;2022-11-20T04:11:21;60.70;;;26.88;;
58017;SDS011;43810;50.860;19.226;2022-11-20T04:13:50;55.40;;;26.40;;
58017;SDS011;43810;50.860;19.226;2022-11-20T04:16:21;63.22;;;25.75;;
58017;SDS011;43810;50.860;19.226;2022-11-20T04:18:51;63.00;;;26.05;;
58017;SDS011;43810;50.860;19.226;2022-11-20T04:21:21;62.17;;;24.85;;
58017;SDS011;43810;50.860;19.226;2022-11-20T04:23:48;73.80;;;28.33;;
58017;SDS011;43810;50.860;19.226;2022-11-20T04:26:14;51.63;;;26.50;;
58017;SDS011;43810;50.860;19.226;2022-11-20T04:28:40;65.03;;;25.85;;
58017;SDS011;43810;50.860;19.226;2022-11-20T04:31:07;73.13;;;27.98;;
58017;SDS011;43810;50.860;19.226;2022-11-20T04:33:35;70.97;;;27.20;;
58017;SDS011;43810;50.860;19.226;2022-11-20T04:36:03;61.25;;;28.23;;
58017;SDS011;43810;50.860;19.226;2022-11-20T04:38:30;71.18;;;30.42;;
58017;SDS011;43810;50.860;19.226;2022-11-20T04:41:00;73.72;;;28.00;;
58017;SDS011;43810;50.860;19.226;2022-11-20T04:43:27;70.53;;;26.40;;
58017;SDS011;43810;50.860;19.226;2022-11-20T04:45:54;73.68;;;27.98;;
58017;SDS011;43810;50.860;19.226;2022-11-20T04:48:20;68.18;;;27.98;;
58017;SDS011;43810;50.860;19.226;2022-11-20T04:50:47;74.90;;;30.00;;
58017;SDS011;43810;50.860;19.226;2022-11-20T04:53:12;66.80;;;30.17;;
58017;SDS011;43810;50.860;19.226;2022-11-20T04:55:38;81.22;;;32.90;;
58017;SDS011;43810;50.860;19.226;2022-11-20T04:58:04;77.07;;;33.55;;
58017;SDS011;43810;50.860;19.226;2022-11-20T05:00:30;77.75;;;30.05;;
58017;SDS011;43810;50.860;19.226;2022-11-20T05:02:55;83.13;;;33.45;;
58017;SDS011;43810;50.860;19.226;2022-11-20T05:05:21;70.20;;;30.55;;
58017;SDS011;43810;50.860;19.226;2022-11-20T05:07:47;69.43;;;34.33;;
58017;SDS011;43810;50.860;19.226;2022-11-20T05:10:13;88.30;;;32.70;;
58017;SDS011;43810;50.860;19.226;2022-11-20T05:12:38;88.55;;;33.85;;
58017;SDS011;43810;50.860;19.226;2022-11-20T05:15:04;80.28;;;32.25;;
58017;SDS011;43810;50.860;19.226;2022-11-20T05:17:30;93.30;;;32.92;;
58017;SDS011;43810;50.860;19.226;2022-11-20T05:19:56;71.78;;;29.20;;
58017;SDS011;43810;50.860;19.226;2022-11-20T05:22:21;85.60;;;32.20;;
58017;SDS011;43810;50.860;19.226;2022-11-20T05:24:47;75.45;;;32.05;;
58017;SDS011;43810;50.860;19.226;2022-11-20T05:27:12;82.07;;;33.53;;
58017;SDS011;43810;50.860;19.226;2022-11-20T05:29:38;97.53;;;36.25;;
58017;SDS011;43810;50.860;19.226;2022-11-20T05:32:04;95.00;;;40.55;;
58017;SDS011;43810;50.860;19.226;2022-11-20T05:34:31;88.07;;;36.72;;
58017;SDS011;43810;50.860;19.226;2022-11-20T05:36:57;98.53;;;38.15;;
58017;SDS011;43810;50.860;19.226;2022-11-20T05:39:22;75.35;;;34.72;;
58017;SDS011;43810;50.860;19.226;2022-11-20T05:41:48;84.00;;;34.35;;
58017;SDS011;43810;50.860;19.226;2022-11-20T05:44:34;79.32;;;33.80;;
58017;SDS011;43810;50.860;19.226;2022-11-20T05:46:59;81.82;;;34.97;;
58017;SDS011;43810;50.860;19.226;2022-11-20T05:49:25;96.78;;;34.13;;
58017;SDS011;43810;50.860;19.226;2022-11-20T05:51:50;93.50;;;34.25;;
58017;SDS011;43810;50.860;19.226;2022-11-20T05:54:16;81.93;;;35.38;;
58017;SDS011;43810;50.860;19.226;2022-11-20T05:56:42;82.82;;;33.03;;
58017;SDS011;43810;50.860;19.226;2022-11-20T05:59:08;86.45;;;33.88;;
58017;SDS011;43810;50.860;19.226;2022-11-20T06:01:33;81.22;;;33.22;;
58017;SDS011;43810;50.860;19.226;2022-11-20T06:04:01;76.43;;;32.17;;
58017;SDS011;43810;50.860;19.226;2022-11-20T06:06:27;67.45;;;31.35;;
58017;SDS011;43810;50.860;19.226;2022-11-20T06:08:53;79.05;;;34.97;;
58017;SDS011;43810;50.860;19.226;2022-11-20T06:11:19;78.30;;;32.50;;
58017;SDS011;43810;50.860;19.226;2022-11-20T06:13:46;92.78;;;33.35;;
58017;SDS011;43810;50.860;19.226;2022-11-20T06:16:13;101.60;;;35.50;;
58017;SDS011;43810;50.860;19.226;2022-11-20T06:18:41;94.43;;;37.17;;
58017;SDS011;43810;50.860;19.226;2022-11-20T06:21:07;96.82;;;35.65;;
58017;SDS011;43810;50.860;19.226;2022-11-20T06:23:35;111.53;;;41.17;;
58017;SDS011;43810;50.860;19.226;2022-11-20T06:26:13;122.10;;;46.20;;
58017;SDS011;43810;50.860;19.226;2022-11-20T06:28:41;84.80;;;37.13;;
58017;SDS011;43810;50.860;19.226;2022-11-20T06:31:07;89.25;;;38.17;;
58017;SDS011;43810;50.860;19.226;2022-11-20T06:33:35;123.95;;;42.00;;
58017;SDS011;43810;50.860;19.226;2022-11-20T06:36:01;117.22;;;43.35;;
58017;SDS011;43810;50.860;19.226;2022-11-20T06:38:27;115.70;;;42.05;;
58017;SDS011;43810;50.860;19.226;2022-11-20T06:40:53;118.47;;;39.55;;
58017;SDS011;43810;50.860;19.226;2022-11-20T06:43:20;108.15;;;39.38;;
58017;SDS011;43810;50.860;19.226;2022-11-20T06:45:45;94.55;;;40.30;;
58017;SDS011;43810;50.860;19.226;2022-11-20T06:48:11;117.78;;;43.97;;
58017;SDS011;43810;50.860;19.226;2022-11-20T06:50:37;147.30;;;48.55;;
58017;SDS011;43810;50.860;19.226;2022-11-20T06:53:03;138.00;;;47.15;;
58017;SDS011;43810;50.860;19.226;2022-11-20T06:55:30;137.63;;;44.15;;
58017;SDS011;43810;50.860;19.226;2022-11-20T06:57:57;113.72;;;42.20;;
58017;SDS011;43810;50.860;19.226;2022-11-20T07:00:23;105.90;;;41.28;;
58017;SDS011;43810;50.860;19.226;2022-11-20T07:02:49;115.88;;;43.75;;
58017;SDS011;43810;50.860;19.226;2022-11-20T07:05:15;116.80;;;43.97;;
58017;SDS011;43810;50.860;19.226;2022-11-20T07:07:41;108.60;;;39.97;;
58017;SDS011;43810;50.860;19.226;2022-11-20T07:10:07;101.35;;;35.40;;
58017;SDS011;43810;50.860;19.226;2022-11-20T07:12:34;86.43;;;33.97;;
58017;SDS011;43810;50.860;19.226;2022-11-20T07:14:59;96.82;;;35.42;;
58017;SDS011;43810;50.860;19.226;2022-11-20T07:17:25;100.38;;;39.03;;
58017;SDS011;43810;50.860;19.226;2022-11-20T07:19:50;94.25;;;38.90;;
58017;SDS011;43810;50.860;19.226;2022-11-20T07:22:16;87.28;;;36.75;;
58017;SDS011;43810;50.860;19.226;2022-11-20T07:24:42;107.32;;;40.30;;
58017;SDS011;43810;50.860;19.226;2022-11-20T07:27:08;104.28;;;41.47;;
58017;SDS011;43810;50.860;19.226;2022-11-20T07:29:33;103.07;;;40.53;;
58017;SDS011;43810;50.860;19.226;2022-11-20T07:31:59;110.15;;;42.92;;
58017;SDS011;43810;50.860;19.226;2022-11-20T07:34:24;123.85;;;45.97;;
58017;SDS011;43810;50.860;19.226;2022-11-20T07:36:50;121.03;;;48.20;;
58017;SDS011;43810;50.860;19.226;2022-11-20T07:39:16;113.85;;;44.90;;
58017;SDS011;43810;50.860;19.226;2022-11-20T07:41:42;127.97;;;46.90;;
58017;SDS011;43810;50.860;19.226;2022-11-20T07:44:07;130.63;;;46.33;;
58017;SDS011;43810;50.860;19.226;2022-11-20T07:46:33;127.78;;;45.50;;
58017;SDS011;43810;50.860;19.226;2022-11-20T07:48:59;144.32;;;48.85;;
58017;SDS011;43810;50.860;19.226;2022-11-20T07:51:24;136.05;;;51.22;;
58017;SDS011;43810;50.860;19.226;2022-11-20T07:53:51;141.20;;;51.50;;
58017;SDS011;43810;50.860;19.226;2022-11-20T07:56:17;139.60;;;52.15;;
58017;SDS011;43810;50.860;19.226;2022-11-20T07:58:43;139.88;;;53.40;;
58017;SDS011;43810;50.860;19.226;2022-11-20T08:01:09;137.27;;;54.47;;
58017;SDS011;43810;50.860;19.226;2022-11-20T08:03:35;124.60;;;51.53;;
58017;SDS011;43810;50.860;19.226;2022-11-20T08:06:04;131.35;;;50.42;;
58017;SDS011;43810;50.860;19.226;2022-11-20T08:08:30;123.13;;;52.05;;
58017;SDS011;43810;50.860;19.226;2022-11-20T08:10:56;130.55;;;51.17;;
58017;SDS011;43810;50.860;19.226;2022-11-20T08:13:42;120.18;;;49.83;;
58017;SDS011;43810;50.860;19.226;2022-11-20T08:16:28;131.13;;;51.35;;
58017;SDS011;43810;50.860;19.226;2022-11-20T08:18:54;129.68;;;49.75;;
58017;SDS011;43810;50.860;19.226;2022-11-20T08:21:20;121.05;;;49.97;;
58017;SDS011;43810;50.860;19.226;2022-11-20T08:23:45;123.30;;;48.78;;
58017;SDS011;43810;50.860;19.226;2022-11-20T08:26:11;115.63;;;47.35;;
58017;SDS011;43810;50.860;19.226;2022-11-20T08:28:36;114.60;;;46.65;;
58017;SDS011;43810;50.860;19.226;2022-11-20T08:31:02;116.97;;;44.10;;
58017;SDS011;43810;50.860;19.226;2022-11-20T08:33:28;106.90;;;46.67;;
58017;SDS011;43810;50.860;19.226;2022-11-20T08:36:02;109.40;;;44.50;;
58017;SDS011;43810;50.860;19.226;2022-11-20T08:38:28;107.93;;;43.90;;
58017;SDS011;43810;50.860;19.226;2022-11-20T08:40:59;115.07;;;46.28;;
58017;SDS011;43810;50.860;19.226;2022-11-20T08:43:45;109.28;;;45.00;;
58017;SDS011;43810;50.860;19.226;2022-11-20T08:46:11;129.23;;;48.47;;
58017;SDS011;43810;50.860;19.226;2022-11-20T08:48:36;120.18;;;47.72;;
58017;SDS011;43810;50.860;19.226;2022-11-20T08:51:02;117.72;;;47.83;;
58017;SDS011;43810;50.860;19.226;2022-11-20T08:53:28;120.07;;;49.03;;
58017;SDS011;43810;50.860;19.226;2022-11-20T08:55:54;119.68;;;47.63;;
58017;SDS011;43810;50.860;19.226;2022-11-20T08:58:21;128.50;;;47.08;;
58017;SDS011;43810;50.860;19.226;2022-11-20T09:00:47;115.60;;;46.40;;
58017;SDS011;43810;50.860;19.226;2022-11-20T09:03:12;113.95;;;48.38;;
58017;SDS011;43810;50.860;19.226;2022-11-20T09:05:39;113.68;;;44.97;;
58017;SDS011;43810;50.860;19.226;2022-11-20T09:08:04;111.10;;;45.28;;
58017;SDS011;43810;50.860;19.226;2022-11-20T09:10:31;115.45;;;44.97;;
58017;SDS011;43810;50.860;19.226;2022-11-20T09:12:57;130.40;;;50.95;;
58017;SDS011;43810;50.860;19.226;2022-11-20T09:15:23;125.60;;;50.05;;
58017;SDS011;43810;50.860;19.226;2022-11-20T09:18:00;130.65;;;51.28;;
58017;SDS011;43810;50.860;19.226;2022-11-20T09:20:28;127.18;;;48.92;;
58017;SDS011;43810;50.860;19.226;2022-11-20T09:22:55;108.47;;;46.15;;
58017;SDS011;43810;50.860;19.226;2022-11-20T09:25:22;107.38;;;46.85;;
58017;SDS011;43810;50.860;19.226;2022-11-20T09:27:47;110.47;;;47.80;;
58017;SDS011;43810;50.860;19.226;2022-11-20T09:30:14;92.97;;;41.17;;
58017;SDS011;43810;50.860;19.226;2022-11-20T09:32:40;82.20;;;32.88;;
58017;SDS011;43810;50.860;19.226;2022-11-20T09:35:07;75.20;;;31.25;;
58017;SDS011;43810;50.860;19.226;2022-11-20T09:37:33;76.80;;;30.85;;
58017;SDS011;43810;50.860;19.226;2022-11-20T09:39:59;65.90;;;28.75;;
58017;SDS011;43810;50.860;19.226;2022-11-20T09:50:43;53.38;;;22.52;;
58017;SDS011;43810;50.860;19.226;2022-11-20T09:53:18;59.10;;;23.33;;
58017;SDS011;43810;50.860;19.226;2022-11-20T09:55:52;49.90;;;20.60;;
58017;SDS011;43810;50.860;19.226;2022-11-20T09:58:29;50.08;;;20.00;;
58017;SDS011;43810;50.860;19.226;2022-11-20T10:01:07;38.70;;;17.20;;
58017;SDS011;43810;50.860;19.226;2022-11-20T10:03:56;44.47;;;17.85;;
58017;SDS011;43810;50.860;19.226;2022-11-20T10:06:41;42.03;;;18.45;;
58017;SDS011;43810;50.860;19.226;2022-11-20T10:11:59;35.15;;;16.40;;
58017;SDS011;43810;50.860;19.226;2022-11-20T10:25:22;44.20;;;18.60;;
58017;SDS011;43810;50.860;19.226;2022-11-20T10:30:40;42.28;;;18.33;;
58017;SDS011;43810;50.860;19.226;2022-11-20T10:33:19;49.50;;;20.50;;
58017;SDS011;43810;50.860;19.226;2022-11-20T10:35:52;55.10;;;21.65;;
58017;SDS011;43810;50.860;19.226;2022-11-20T10:41:21;43.45;;;21.25;;
58017;SDS011;43810;50.860;19.226;2022-11-20T10:43:53;50.00;;;22.02;;
58017;SDS011;43810;50.860;19.226;2022-11-20T10:46:25;57.47;;;24.13;;
58017;SDS011;43810;50.860;19.226;2022-11-20T10:49:04;50.55;;;23.45;;
58017;SDS011;43810;50.860;19.226;2022-11-20T10:57:46;54.17;;;23.63;;
58017;SDS011;43810;50.860;19.226;2022-11-20T11:00:35;63.03;;;25.95;;
58017;SDS011;43810;50.860;19.226;2022-11-20T11:03:00;57.67;;;24.85;;
58017;SDS011;43810;50.860;19.226;2022-11-20T11:06:12;55.20;;;23.23;;
58017;SDS011;43810;50.860;19.226;2022-11-20T11:08:31;55.78;;;25.40;;
58017;SDS011;43810;50.860;19.226;2022-11-20T11:11:02;52.97;;;24.98;;
58017;SDS011;43810;50.860;19.226;2022-11-20T11:13:43;51.43;;;22.43;;
58017;SDS011;43810;50.860;19.226;2022-11-20T11:18:48;42.83;;;19.08;;
58017;SDS011;43810;50.860;19.226;2022-11-20T11:21:14;40.35;;;20.00;;
58017;SDS011;43810;50.860;19.226;2022-11-20T11:23:48;44.03;;;18.25;;
58017;SDS011;43810;50.860;19.226;2022-11-20T11:26:24;45.47;;;19.80;;
58017;SDS011;43810;50.860;19.226;2022-11-20T11:28:55;44.83;;;20.95;;
58017;SDS011;43810;50.860;19.226;2022-11-20T11:31:30;48.63;;;21.40;;
58017;SDS011;43810;50.860;19.226;2022-11-20T11:34:13;51.58;;;22.38;;
58017;SDS011;43810;50.860;19.226;2022-11-20T11:36:40;45.33;;;20.50;;
58017;SDS011;43810;50.860;19.226;2022-11-20T11:39:11;40.60;;;18.48;;
58017;SDS011;43810;50.860;19.226;2022-11-20T11:41:41;44.05;;;18.40;;
58017;SDS011;43810;50.860;19.226;2022-11-20T11:44:43;35.65;;;16.33;;
58017;SDS011;43810;50.860;19.226;2022-11-20T11:50:01;37.65;;;16.65;;
58017;SDS011;43810;50.860;19.226;2022-11-20T11:52:27;43.40;;;17.88;;
58017;SDS011;43810;50.860;19.226;2022-11-20T11:54:58;45.03;;;19.75;;
58017;SDS011;43810;50.860;19.226;2022-11-20T11:57:41;38.28;;;18.48;;
58017;SDS011;43810;50.860;19.226;2022-11-20T12:00:19;40.95;;;18.52;;
58017;SDS011;43810;50.860;19.226;2022-11-20T12:07:51;42.90;;;21.30;;
58017;SDS011;43810;50.860;19.226;2022-11-20T12:16:03;46.88;;;19.90;;
58017;SDS011;43810;50.860;19.226;2022-11-20T12:18:30;47.13;;;20.02;;
58017;SDS011;43810;50.860;19.226;2022-11-20T12:21:05;41.28;;;17.77;;
58017;SDS011;43810;50.860;19.226;2022-11-20T12:29:40;43.80;;;17.67;;
58017;SDS011;43810;50.860;19.226;2022-11-20T12:32:18;44.40;;;18.23;;
58017;SDS011;43810;50.860;19.226;2022-11-20T12:35:05;46.55;;;18.95;;
58017;SDS011;43810;50.860;19.226;2022-11-20T12:43:57;37.28;;;16.60;;
58017;SDS011;43810;50.860;19.226;2022-11-20T12:47:08;38.75;;;16.33;;
58017;SDS011;43810;50.860;19.226;2022-11-20T12:50:02;38.65;;;17.67;;
58017;SDS011;43810;50.860;19.226;2022-11-20T12:52:41;43.10;;;17.23;;
58017;SDS011;43810;50.860;19.226;2022-11-20T12:57:58;35.27;;;15.73;;
58017;SDS011;43810;50.860;19.226;2022-11-20T13:00:47;36.47;;;16.98;;
58017;SDS011;43810;50.860;19.226;2022-11-20T13:03:26;28.90;;;15.13;;
58017;SDS011;43810;50.860;19.226;2022-11-20T13:06:15;30.30;;;14.93;;
58017;SDS011;43810;50.860;19.226;2022-11-20T13:08:47;30.92;;;14.80;;
58017;SDS011;43810;50.860;19.226;2022-11-20T13:11:36;33.83;;;15.05;;
58017;SDS011;43810;50.860;19.226;2022-11-20T13:19:30;31.70;;;15.63;;
58017;SDS011;43810;50.860;19.226;2022-11-20T13:21:56;34.45;;;15.52;;
58017;SDS011;43810;50.860;19.226;2022-11-20T13:24:24;33.78;;;17.58;;
58017;SDS011;43810;50.860;19.226;2022-11-20T13:27:05;37.20;;;17.35;;
58017;SDS011;43810;50.860;19.226;2022-11-20T13:29:47;34.03;;;15.35;;
58017;SDS011;43810;50.860;19.226;2022-11-20T13:32:25;34.17;;;15.70;;
58017;SDS011;43810;50.860;19.226;2022-11-20T13:34:58;41.72;;;16.77;;
58017;SDS011;43810;50.860;19.226;2022-11-20T13:40:32;41.38;;;16.95;;
58017;SDS011;43810;50.860;19.226;2022-11-20T13:48:34;38.85;;;16.00;;
58017;SDS011;43810;50.860;19.226;2022-11-20T13:51:29;39.42;;;16.13;;
58017;SDS011;43810;50.860;19.226;2022-11-20T14:02:08;32.92;;;15.50;;
58017;SDS011;43810;50.860;19.226;2022-11-20T14:04:38;37.88;;;17.05;;
58017;SDS011;43810;50.860;19.226;2022-11-20T14:07:09;46.83;;;19.17;;
58017;SDS011;43810;50.860;19.226;2022-11-20T14:09:35;55.55;;;21.20;;
58017;SDS011;43810;50.860;19.226;2022-11-20T14:12:01;52.17;;;22.00;;
58017;SDS011;43810;50.860;19.226;2022-11-20T14:14:28;50.72;;;21.13;;
58017;SDS011;43810;50.860;19.226;2022-11-20T14:17:19;45.97;;;21.20;;
58017;SDS011;43810;50.860;19.226;2022-11-20T14:19:44;52.35;;;22.40;;
58017;SDS011;43810;50.860;19.226;2022-11-20T14:22:22;48.88;;;22.08;;
58017;SDS011;43810;50.860;19.226;2022-11-20T14:25:00;56.72;;;20.95;;
58017;SDS011;43810;50.860;19.226;2022-11-20T14:27:29;53.08;;;22.10;;
58017;SDS011;43810;50.860;19.226;2022-11-20T14:30:00;52.88;;;22.17;;
58017;SDS011;43810;50.860;19.226;2022-11-20T14:32:27;49.40;;;23.20;;
58017;SDS011;43810;50.860;19.226;2022-11-20T14:34:55;55.72;;;24.15;;
58017;SDS011;43810;50.860;19.226;2022-11-20T14:37:28;60.17;;;24.52;;
58017;SDS011;43810;50.860;19.226;2022-11-20T14:39:58;60.63;;;24.42;;
58017;SDS011;43810;50.860;19.226;2022-11-20T14:42:25;55.38;;;23.70;;
58017;SDS011;43810;50.860;19.226;2022-11-20T14:44:55;59.08;;;22.20;;
58017;SDS011;43810;50.860;19.226;2022-11-20T14:47:24;53.33;;;22.10;;
58017;SDS011;43810;50.860;19.226;2022-11-20T14:49:52;59.08;;;23.40;;
58017;SDS011;43810;50.860;19.226;2022-11-20T14:52:21;57.38;;;25.13;;
58017;SDS011;43810;50.860;19.226;2022-11-20T14:54:55;69.45;;;26.50;;
58017;SDS011;43810;50.860;19.226;2022-11-20T14:57:27;61.40;;;24.90;;
58017;SDS011;43810;50.860;19.226;2022-11-20T15:00:04;71.65;;;27.15;;
58017;SDS011;43810;50.860;19.226;2022-11-20T15:02:32;71.13;;;26.13;;
58017;SDS011;43810;50.860;19.226;2022-11-20T15:04:58;64.25;;;26.35;;
58017;SDS011;43810;50.860;19.226;2022-11-20T15:07:31;68.60;;;26.30;;
58017;SDS011;43810;50.860;19.226;2022-11-20T15:12:55;64.45;;;27.30;;
58017;SDS011;43810;50.860;19.226;2022-11-20T15:18:18;61.05;;;25.38;;
58017;SDS011;43810;50.860;19.226;2022-11-20T15:20:46;55.72;;;24.60;;
58017;SDS011;43810;50.860;19.226;2022-11-20T15:23:14;73.72;;;27.77;;
58017;SDS011;43810;50.860;19.226;2022-11-20T15:25:42;72.47;;;27.75;;
58017;SDS011;43810;50.860;19.226;2022-11-20T15:30:47;64.80;;;24.80;;
58017;SDS011;43810;50.860;19.226;2022-11-20T15:33:14;63.03;;;26.80;;
58017;SDS011;43810;50.860;19.226;2022-11-20T15:35:41;66.45;;;27.10;;
58017;SDS011;43810;50.860;19.226;2022-11-20T15:38:07;70.07;;;29.20;;
58017;SDS011;43810;50.860;19.226;2022-11-20T15:40:32;80.78;;;29.52;;
58017;SDS011;43810;50.860;19.226;2022-11-20T15:42:58;93.03;;;31.70;;
58017;SDS011;43810;50.860;19.226;2022-11-20T15:45:32;85.60;;;32.58;;
58017;SDS011;43810;50.860;19.226;2022-11-20T15:48:02;75.35;;;32.08;;
58017;SDS011;43810;50.860;19.226;2022-11-20T15:50:36;79.78;;;30.88;;
58017;SDS011;43810;50.860;19.226;2022-11-20T15:53:04;77.85;;;30.70;;
58017;SDS011;43810;50.860;19.226;2022-11-20T15:55:30;75.00;;;29.77;;